Time;durP1;ratioP1;P1;durP2;ratioP2;P2;SDS_P1;SDS_P2;PMS_P1;PMS_P2;Temp;Humidity;BMP_temperature;BMP_pressure;BME280_temperature;BME280_humidity;BME280_pressure;Samples;Min_cycle;Max_cycle;Signal;HPM_P1;HPM_P2
2023/05/28 00:02:08;;;;;;;5.40;3.85;;;24.40;77.60;;;;;;10783903;33;20363;-74
2023/05/28 00:08:10;;;;;;;6.15;3.37;;;24.30;78.10;;;;;;10785827;33;20016;-74
2023/05/28 00:14:45;;;;;;;7.12;3.97;;;24.30;78.10;;;;;;10787444;33;20028;-73
2023/05/28 00:20:50;;;;;;;9.57;4.65;;;24.30;78.30;;;;;;10785641;33;20050;-73
2023/05/28 00:26:52;;;;;;;5.25;3.62;;;24.20;78.10;;;;;;10770444;33;20028;-73
2023/05/28 00:32:55;;;;;;;7.32;3.80;;;24.10;77.90;;;;;;10787071;33;20012;-73
2023/05/28 00:38:59;;;;;;;6.50;3.80;;;24.10;77.70;;;;;;10774554;33;20382;-72
2023/05/28 00:45:02;;;;;;;5.37;3.92;;;24.00;77.70;;;;;;10786824;32;20024;-73
2023/05/28 00:51:07;;;;;;;6.00;4.35;;;23.90;77.10;;;;;;10783925;32;20555;-73
2023/05/28 00:57:09;;;;;;;8.55;6.53;;;23.80;76.90;;;;;;10789067;32;20464;-73
2023/05/28 01:03:13;;;;;;;12.48;5.07;;;23.80;76.80;;;;;;10792702;33;20032;-73
2023/05/28 01:09:16;;;;;;;7.18;4.53;;;23.70;76.50;;;;;;10775876;33;20066;-73
2023/05/28 01:15:18;;;;;;;8.23;5.87;;;23.60;76.10;;;;;;10791140;33;20032;-72
2023/05/28 01:21:22;;;;;;;7.78;5.18;;;23.50;76.00;;;;;;10777228;33;20024;-74
2023/05/28 01:27:25;;;;;;;8.43;3.58;;;23.50;76.70;;;;;;10778383;33;20055;-74
2023/05/28 01:33:27;;;;;;;7.22;4.35;;;23.50;77.20;;;;;;10789439;33;20055;-74
2023/05/28 01:39:36;;;;;;;5.40;2.67;;;23.60;77.80;;;;;;10789037;33;20052;-74
2023/05/28 01:45:40;;;;;;;8.02;5.15;;;23.60;78.30;;;;;;10791751;33;20059;-72
2023/05/28 01:51:42;;;;;;;9.15;4.57;;;23.60;77.90;;;;;;10792680;33;20028;-73
2023/05/28 01:57:44;;;;;;;7.10;4.40;;;23.50;77.80;;;;;;10792443;33;20047;-73
2023/05/28 02:03:46;;;;;;;8.82;4.60;;;23.50;77.70;;;;;;10774308;32;20444;-73
2023/05/28 02:09:48;;;;;;;5.15;3.53;;;23.50;78.50;;;;;;10777923;33;20042;-74
2023/05/28 02:15:50;;;;;;;4.75;3.45;;;23.60;78.50;;;;;;10789721;33;20406;-74
2023/05/28 02:21:53;;;;;;;7.28;3.03;;;23.70;78.90;;;;;;10788422;33;20056;-74
2023/05/28 02:27:55;;;;;;;4.53;2.92;;;23.80;79.10;;;;;;10790352;33;20055;-74
2023/05/28 02:33:57;;;;;;;7.95;4.35;;;23.80;79.60;;;;;;10787403;33;20295;-73
2023/05/28 02:39:59;;;;;;;4.62;2.60;;;23.80;79.90;;;;;;10787720;33;20079;-73
2023/05/28 02:46:02;;;;;;;5.53;2.50;;;23.80;79.90;;;;;;10787018;32;20390;-73
2023/05/28 02:52:05;;;;;;;6.25;3.83;;;23.70;80.00;;;;;;10789000;33;20032;-74
2023/05/28 02:58:07;;;;;;;4.43;3.05;;;23.70;80.10;;;;;;10790159;33;20390;-73
2023/05/28 03:04:09;;;;;;;3.90;3.10;;;23.60;80.10;;;;;;10789338;33;20063;-73
2023/05/28 03:10:11;;;;;;;6.47;3.17;;;23.60;80.20;;;;;;10789887;32;20021;-73
2023/05/28 03:16:13;;;;;;;7.00;3.85;;;23.60;80.30;;;;;;10789482;33;20025;-73
2023/05/28 03:22:19;;;;;;;8.77;4.10;;;23.60;80.00;;;;;;10788864;33;20028;-74
2023/05/28 03:28:23;;;;;;;5.20;3.33;;;23.50;80.20;;;;;;10786016;33;20051;-74
2023/05/28 03:34:26;;;;;;;6.87;4.43;;;23.50;80.40;;;;;;10789663;33;20031;-74
2023/05/28 03:40:29;;;;;;;4.93;3.40;;;23.50;80.40;;;;;;10788418;33;20060;-74
2023/05/28 03:46:33;;;;;;;6.53;4.15;;;23.60;80.40;;;;;;10789478;33;20020;-74
2023/05/28 03:52:34;;;;;;;6.22;3.75;;;23.50;80.40;;;;;;10775821;32;20066;-72
2023/05/28 03:58:36;;;;;;;8.10;3.85;;;23.40;80.30;;;;;;10788668;33;20012;-74
2023/05/28 04:04:38;;;;;;;5.80;4.00;;;23.30;80.20;;;;;;10788383;33;20395;-73
2023/05/28 04:10:40;;;;;;;9.00;3.80;;;23.30;80.40;;;;;;10787709;33;20009;-73
2023/05/28 04:16:42;;;;;;;7.12;4.03;;;23.30;80.50;;;;;;10774456;33;20040;-73
2023/05/28 04:22:47;;;;;;;5.12;3.50;;;23.40;80.30;;;;;;10787991;33;20042;-74
2023/05/28 04:28:50;;;;;;;7.10;2.90;;;23.50;80.20;;;;;;10788985;33;20084;-73
2023/05/28 04:34:53;;;;;;;4.78;3.00;;;23.40;80.10;;;;;;10793661;33;20020;-74
2023/05/28 04:40:55;;;;;;;5.43;3.62;;;23.40;80.00;;;;;;10791926;33;20050;-73
2023/05/28 04:46:58;;;;;;;6.35;3.45;;;23.40;80.00;;;;;;10778421;33;20024;-73
2023/05/28 04:53:01;;;;;;;4.70;2.78;;;23.40;80.00;;;;;;10778389;32;20040;-74
2023/05/28 04:59:04;;;;;;;4.40;3.28;;;23.50;79.80;;;;;;10791575;33;20067;-74
2023/05/28 05:05:07;;;;;;;5.30;3.08;;;23.30;79.80;;;;;;10777567;32;20036;-73
2023/05/28 05:11:10;;;;;;;4.03;2.58;;;23.30;79.80;;;;;;10778429;33;20036;-74
2023/05/28 05:17:12;;;;;;;6.35;3.35;;;23.50;79.70;;;;;;10793645;33;20058;-73
2023/05/28 05:23:15;;;;;;;4.95;3.47;;;23.60;79.70;;;;;;10778848;32;20104;-74
2023/05/28 05:29:18;;;;;;;5.10;3.05;;;23.60;79.70;;;;;;10788277;33;20054;-74
2023/05/28 05:35:21;;;;;;;6.10;3.12;;;23.60;79.70;;;;;;10776318;32;20062;-74
2023/05/28 05:41:26;;;;;;;5.32;3.22;;;23.70;80.00;;;;;;10807523;32;20057;-75
2023/05/28 05:47:28;;;;;;;5.70;4.22;;;23.60;80.30;;;;;;10983386;32;20397;-74
2023/05/28 05:53:31;;;;;;;6.35;3.78;;;23.70;80.50;;;;;;10983606;32;20306;-73
2023/05/28 05:59:33;;;;;;;5.22;3.35;;;23.70;80.50;;;;;;10984235;32;20041;-73
2023/05/28 06:05:36;;;;;;;7.40;4.28;;;23.60;80.30;;;;;;10983427;32;20325;-74
2023/05/28 06:11:39;;;;;;;6.05;3.78;;;23.40;80.00;;;;;;10981720;32;20065;-74
2023/05/28 06:17:43;;;;;;;3.75;2.22;;;23.50;79.90;;;;;;10984279;32;20018;-74
2023/05/28 06:23:45;;;;;;;5.37;3.12;;;23.60;80.10;;;;;;10952626;32;20057;-75
2023/05/28 06:29:49;;;;;;;6.28;2.67;;;23.50;80.40;;;;;;10968679;32;20081;-74
2023/05/28 06:35:51;;;;;;;5.85;3.35;;;23.70;80.40;;;;;;10978914;32;20045;-74
2023/05/28 06:41:54;;;;;;;6.53;3.37;;;23.80;80.10;;;;;;10967160;32;20072;-75
2023/05/28 06:47:57;;;;;;;6.25;3.17;;;23.80;79.90;;;;;;10772568;32;20116;-74
2023/05/28 06:53:59;;;;;;;7.47;4.03;;;23.80;80.10;;;;;;10790457;33;20029;-74
2023/05/28 07:00:13;;;;;;;10.63;3.45;;;23.80;80.30;;;;;;10787707;32;20028;-74
2023/05/28 07:06:15;;;;;;;7.15;3.25;;;23.80;80.40;;;;;;10786982;33;20039;-74
2023/05/28 07:12:18;;;;;;;7.12;3.28;;;23.80;80.30;;;;;;10785985;33;20043;-74
2023/05/28 07:18:22;;;;;;;5.72;3.37;;;23.80;80.00;;;;;;10785180;33;20414;-74
2023/05/28 07:24:24;;;;;;;6.05;3.75;;;23.80;79.70;;;;;;10581738;27;7076040;-73
2023/05/28 07:30:27;;;;;;;9.20;3.92;;;23.90;78.90;;;;;;10784793;33;20004;-74
2023/05/28 07:36:31;;;;;;;5.93;2.97;;;24.00;78.90;;;;;;10772150;32;20067;-74
2023/05/28 07:42:33;;;;;;;9.73;4.43;;;24.30;78.40;;;;;;10788414;33;20021;-74
2023/05/28 07:48:36;;;;;;;6.93;5.05;;;24.20;77.80;;;;;;10775993;33;20013;-74
2023/05/28 07:54:41;;;;;;;12.70;6.57;;;24.30;77.50;;;;;;10789232;33;20530;-72
2023/05/28 08:00:44;;;;;;;9.93;4.68;;;24.50;77.50;;;;;;10773840;33;20390;-74
2023/05/28 08:06:47;;;;;;;5.43;4.10;;;24.40;76.10;;;;;;10787155;33;20020;-74
2023/05/28 08:12:50;;;;;;;5.60;3.72;;;24.40;75.70;;;;;;10788241;33;20406;-73
2023/05/28 08:18:52;;;;;;;6.82;4.22;;;24.60;76.60;;;;;;10787571;32;20505;-73
2023/05/28 08:24:55;;;;;;;5.68;3.67;;;24.70;76.90;;;;;;10774131;33;20024;-74
2023/05/28 08:30:57;;;;;;;7.10;3.33;;;24.80;76.70;;;;;;10784917;33;20032;-74
2023/05/28 08:37:00;;;;;;;7.53;4.53;;;24.90;75.60;;;;;;10769671;32;20052;-72
2023/05/28 08:43:03;;;;;;;11.57;5.80;;;25.20;75.80;;;;;;10750538;33;20021;-74
2023/05/28 08:49:10;;;;;;;7.70;3.33;;;25.30;74.90;;;;;;10750968;33;20020;-73
2023/05/28 08:55:13;;;;;;;5.78;3.83;;;25.20;74.80;;;;;;10758987;32;20036;-73
2023/05/28 09:01:16;;;;;;;7.90;3.78;;;25.10;74.90;;;;;;10766788;32;20025;-74
2023/05/28 09:07:19;;;;;;;7.25;4.30;;;25.00;74.00;;;;;;10774044;32;20036;-72
2023/05/28 09:13:25;;;;;;;5.18;3.10;;;25.20;74.10;;;;;;10836657;32;20040;-73
2023/05/28 09:19:28;;;;;;;6.75;3.87;;;25.20;72.70;;;;;;10793373;33;20383;-73
2023/05/28 09:25:38;;;;;;;7.03;3.62;;;25.30;72.40;;;;;;10792141;33;20078;-74
2023/05/28 09:31:40;;;;;;;6.62;3.58;;;25.50;72.20;;;;;;10791961;33;20059;-75
2023/05/28 09:37:42;;;;;;;7.75;3.80;;;25.40;72.30;;;;;;10790242;33;20024;-72
2023/05/28 09:43:45;;;;;;;6.72;3.75;;;25.70;71.30;;;;;;10791722;33;20398;-72
2023/05/28 09:49:49;;;;;;;11.73;4.85;;;25.90;71.00;;;;;;10779280;32;20343;-71
2023/05/28 09:55:52;;;;;;;5.43;3.58;;;26.20;70.30;;;;;;10778351;33;20326;-74
2023/05/28 10:02:11;;;;;;;7.93;4.60;;;26.10;70.70;;;;;;10791068;33;20016;-73
2023/05/28 10:08:18;;;;;;;9.40;5.05;;;26.20;70.00;;;;;;10761571;33;20028;-73
2023/05/28 10:14:21;;;;;;;9.85;4.90;;;26.30;70.30;;;;;;10789734;33;20409;-72
2023/05/28 10:20:23;;;;;;;7.32;3.65;;;26.60;71.00;;;;;;10775403;32;20032;-73
2023/05/28 10:26:26;;;;;;;5.90;3.40;;;26.70;69.90;;;;;;10781336;32;20028;-74
2023/05/28 10:32:29;;;;;;;5.68;3.42;;;26.90;68.90;;;;;;10778533;32;20285;-72
2023/05/28 10:38:45;;;;;;;6.43;3.25;;;27.10;68.60;;;;;;10790096;33;20402;-72
2023/05/28 10:45:06;;;;;;;4.97;2.95;;;27.20;68.90;;;;;;10776990;33;20414;-72
2023/05/28 10:51:08;;;;;;;6.95;3.62;;;27.30;70.00;;;;;;10754003;33;20012;-73
2023/05/28 10:57:16;;;;;;;10.18;5.07;;;27.60;68.90;;;;;;10752165;33;20075;-72
2023/05/28 11:03:42;;;;;;;6.72;3.97;;;27.70;67.10;;;;;;10802767;32;20029;-74
2023/05/28 11:09:51;;;;;;;5.60;3.30;;;27.80;65.60;;;;;;10737127;33;20051;-74
2023/05/28 11:15:53;;;;;;;7.00;4.10;;;27.90;64.70;;;;;;10751545;33;20017;-74
2023/05/28 11:21:55;;;;;;;6.57;3.05;;;28.20;65.60;;;;;;10769037;33;20028;-73
2023/05/28 11:28:00;;;;;;;5.65;3.10;;;28.30;66.30;;;;;;10767027;32;20059;-72
2023/05/28 11:34:02;;;;;;;11.55;4.07;;;28.60;64.20;;;;;;10747748;33;20028;-72
2023/05/28 11:40:17;;;;;;;8.27;3.85;;;28.80;62.30;;;;;;10771053;33;20043;-72
2023/05/28 11:46:22;;;;;;;8.93;4.75;;;28.80;65.80;;;;;;10775582;33;20028;-73
2023/05/28 11:52:25;;;;;;;4.97;2.72;;;28.80;65.50;;;;;;10788519;33;20470;-74
2023/05/28 11:58:30;;;;;;;8.05;3.80;;;28.90;64.00;;;;;;10788519;33;20332;-73
2023/05/28 12:04:32;;;;;;;12.18;3.83;;;29.10;62.20;;;;;;10784447;33;20012;-73
2023/05/28 12:10:34;;;;;;;11.52;4.57;;;29.10;59.60;;;;;;10787935;33;20016;-71
2023/05/28 12:16:47;;;;;;;7.78;4.50;;;29.10;60.70;;;;;;10787381;33;20020;-72
2023/05/28 12:23:35;;;;;;;6.45;4.55;;;29.00;60.20;;;;;;10760213;33;20054;-72
2023/05/28 12:29:37;;;;;;;9.40;3.85;;;29.00;59.60;;;;;;10771617;33;20038;-73
2023/05/28 12:35:56;;;;;;;7.20;4.65;;;29.00;61.60;;;;;;10784165;33;20016;-73
2023/05/28 12:41:58;;;;;;;8.75;4.97;;;29.20;60.60;;;;;;10784028;33;20058;-73
2023/05/28 12:48:00;;;;;;;8.75;4.57;;;29.20;59.80;;;;;;10786886;33;20398;-73
2023/05/28 12:54:07;;;;;;;8.55;3.78;;;29.20;58.90;;;;;;10792716;33;20027;-73
2023/05/28 13:00:10;;;;;;;5.93;3.12;;;29.20;59.00;;;;;;10792921;33;20008;-73
2023/05/28 13:06:12;;;;;;;9.18;4.30;;;29.30;57.60;;;;;;10792802;33;20047;-72
2023/05/28 13:12:14;;;;;;;7.37;4.25;;;29.20;57.50;;;;;;10780797;33;20017;-72
2023/05/28 13:18:34;;;;;;;8.52;4.53;;;29.10;60.20;;;;;;10788586;33;20013;-74
2023/05/28 13:24:36;;;;;;;7.18;3.75;;;29.00;60.40;;;;;;10793259;33;20028;-75
2023/05/28 13:30:38;;;;;;;6.07;3.50;;;29.00;59.40;;;;;;10792802;33;20039;-78
2023/05/28 13:36:40;;;;;;;6.78;4.10;;;28.90;60.80;;;;;;10793241;33;20052;-76
2023/05/28 13:42:44;;;;;;;5.85;3.90;;;29.00;58.80;;;;;;10793117;33;20043;-76
2023/05/28 13:48:46;;;;;;;9.57;5.85;;;29.10;57.30;;;;;;10792363;33;20047;-74
2023/05/28 13:54:48;;;;;;;13.30;4.18;;;29.20;57.50;;;;;;10792673;33;20016;-76
2023/05/28 14:00:50;;;;;;;9.48;4.65;;;29.10;56.60;;;;;;10790695;33;20051;-75
2023/05/28 14:06:52;;;;;;;6.60;4.10;;;29.10;55.40;;;;;;10788998;33;20031;-78
2023/05/28 14:12:54;;;;;;;6.82;3.72;;;29.20;55.10;;;;;;10787878;33;20039;-75
2023/05/28 14:18:56;;;;;;;12.30;4.85;;;29.30;54.80;;;;;;10790615;33;20047;-76
2023/05/28 14:24:58;;;;;;;7.87;4.43;;;29.20;54.50;;;;;;10763354;32;20069;-76
2023/05/28 14:31:00;;;;;;;7.80;4.85;;;29.10;56.00;;;;;;10754908;33;20063;-74
2023/05/28 14:37:02;;;;;;;6.25;3.83;;;29.10;56.20;;;;;;10758313;33;20024;-78
2023/05/28 14:43:05;;;;;;;7.10;3.58;;;29.10;57.10;;;;;;10778035;33;20318;-75
2023/05/28 14:49:07;;;;;;;7.40;3.87;;;29.20;57.60;;;;;;10790847;33;20338;-73
2023/05/28 14:55:09;;;;;;;6.62;3.20;;;29.10;58.50;;;;;;10776291;33;20070;-75
2023/05/28 15:01:11;;;;;;;8.00;3.53;;;29.00;57.80;;;;;;10790411;33;20056;-74
2023/05/28 15:07:13;;;;;;;5.32;3.20;;;28.90;57.50;;;;;;10775847;33;20016;-74
2023/05/28 15:13:15;;;;;;;5.30;3.17;;;29.00;57.20;;;;;;10789846;33;20016;-76
2023/05/28 15:19:18;;;;;;;4.32;3.03;;;29.00;55.60;;;;;;10790007;33;20005;-75
2023/05/28 15:25:23;;;;;;;11.52;3.45;;;29.10;55.30;;;;;;10856331;27;20396;-75
2023/05/28 15:31:26;;;;;;;5.85;3.47;;;29.20;55.10;;;;;;11004264;32;20056;-76
2023/05/28 15:37:28;;;;;;;6.05;3.75;;;29.10;55.10;;;;;;11019498;32;20045;-76
2023/05/28 15:43:30;;;;;;;5.43;2.92;;;29.00;55.30;;;;;;11008706;32;20056;-75
2023/05/28 15:49:32;;;;;;;5.70;3.40;;;29.00;55.00;;;;;;11017436;32;20026;-75
2023/05/28 15:55:34;;;;;;;4.18;2.78;;;29.10;56.30;;;;;;11001477;32;20029;-77
2023/05/28 16:01:40;;;;;;;5.05;2.87;;;29.30;55.40;;;;;;11004027;32;20324;-77
2023/05/28 16:07:43;;;;;;;5.35;2.87;;;29.40;54.60;;;;;;11002741;32;20023;-73
2023/05/28 16:13:46;;;;;;;5.45;3.58;;;29.40;54.90;;;;;;11001175;32;20022;-76
2023/05/28 16:19:48;;;;;;;6.53;3.00;;;29.30;57.20;;;;;;11014283;32;20022;-77
2023/05/28 16:25:50;;;;;;;5.22;3.28;;;29.30;56.90;;;;;;11002759;32;20026;-79
2023/05/28 16:31:52;;;;;;;8.77;2.83;;;29.40;56.90;;;;;;11025374;32;20022;-74
2023/05/28 16:37:55;;;;;;;6.65;3.35;;;29.30;58.20;;;;;;11026186;32;20045;-78
2023/05/28 16:43:57;;;;;;;5.80;2.97;;;29.30;58.80;;;;;;11026032;32;20327;-79
2023/05/28 16:49:59;;;;;;;4.95;2.85;;;29.10;60.60;;;;;;11025180;32;20393;-78
2023/05/28 16:56:01;;;;;;;4.97;2.67;;;29.00;61.40;;;;;;11025590;32;20076;-75
2023/05/28 17:02:04;;;;;;;5.10;3.28;;;29.00;62.30;;;;;;11025363;32;20037;-76
2023/05/28 17:08:06;;;;;;;6.05;2.60;;;28.90;62.80;;;;;;11024471;32;20049;-76
2023/05/28 17:14:08;;;;;;;4.57;2.72;;;28.90;63.10;;;;;;11008056;32;20053;-76
2023/05/28 17:20:11;;;;;;;5.00;2.87;;;28.70;64.00;;;;;;11024838;32;20392;-76
2023/05/28 17:26:13;;;;;;;5.28;2.72;;;28.50;65.00;;;;;;11023389;32;20351;-75
2023/05/28 17:32:15;;;;;;;7.55;3.85;;;28.30;66.20;;;;;;11023145;32;20022;-74
2023/05/28 17:38:17;;;;;;;3.85;2.83;;;28.00;67.40;;;;;;11020982;32;20045;-76
2023/05/28 17:44:23;;;;;;;4.18;2.83;;;27.80;68.20;;;;;;10980432;32;20041;-76
2023/05/28 17:50:25;;;;;;;5.65;2.78;;;27.80;69.10;;;;;;10981569;32;20438;-76
2023/05/28 17:56:27;;;;;;;8.38;3.15;;;27.80;69.40;;;;;;10979984;32;20030;-77
2023/05/28 18:02:29;;;;;;;3.80;1.80;;;27.70;69.10;;;;;;10981070;32;20022;-77
2023/05/28 18:08:32;;;;;;;4.45;2.50;;;27.60;69.30;;;;;;10980100;32;20486;-77
2023/05/28 18:14:36;;;;;;;2.92;1.98;;;27.60;69.60;;;;;;10982673;32;20049;-76
2023/05/28 18:20:38;;;;;;;4.82;2.90;;;27.40;70.50;;;;;;10983185;32;20258;-77
2023/05/28 18:26:40;;;;;;;2.87;1.77;;;27.30;70.40;;;;;;10982213;32;20019;-78
2023/05/28 18:32:42;;;;;;;5.53;3.15;;;27.20;70.30;;;;;;10964690;32;20053;-77
2023/05/28 18:38:44;;;;;;;7.50;2.83;;;27.10;70.70;;;;;;10968680;32;20048;-76
2023/05/28 18:44:47;;;;;;;2.25;1.42;;;27.00;70.80;;;;;;10982465;32;20023;-76
2023/05/28 18:50:49;;;;;;;3.30;1.80;;;27.00;71.40;;;;;;10978969;32;20011;-76
2023/05/28 18:56:51;;;;;;;3.80;2.03;;;26.80;72.70;;;;;;10980565;32;20031;-76
2023/05/28 19:02:53;;;;;;;3.12;2.05;;;26.80;72.80;;;;;;10981462;32;20018;-77
2023/05/28 19:08:55;;;;;;;2.67;1.70;;;26.70;72.60;;;;;;10981526;32;20019;-76
2023/05/28 19:15:03;;;;;;;3.95;2.37;;;26.60;72.30;;;;;;10981260;32;20050;-76
2023/05/28 19:21:06;;;;;;;4.95;2.10;;;26.50;72.40;;;;;;10955057;32;20035;-76
2023/05/28 19:27:08;;;;;;;3.83;2.20;;;26.50;72.40;;;;;;10979300;32;20049;-76
2023/05/28 19:33:11;;;;;;;3.95;2.10;;;26.40;72.50;;;;;;10969013;32;20026;-76
2023/05/28 19:39:13;;;;;;;5.22;2.47;;;26.30;72.90;;;;;;10980344;32;20018;-76
2023/05/28 19:45:16;;;;;;;4.93;2.30;;;26.30;73.10;;;;;;10977312;32;20412;-76
2023/05/28 19:51:18;;;;;;;3.17;2.17;;;26.30;73.10;;;;;;10964309;32;20053;-76
2023/05/28 19:57:20;;;;;;;5.28;2.75;;;26.20;73.00;;;;;;10977428;32;20372;-76
2023/05/28 20:03:22;;;;;;;6.05;3.05;;;26.20;73.00;;;;;;10978153;32;20072;-76
2023/05/28 20:09:24;;;;;;;4.00;2.03;;;26.10;73.10;;;;;;10978966;32;20389;-76
2023/05/28 20:15:27;;;;;;;5.47;2.40;;;26.10;73.40;;;;;;10979486;32;20045;-77
2023/05/28 20:21:30;;;;;;;3.50;2.03;;;25.90;73.50;;;;;;10964594;32;20038;-77
2023/05/28 20:27:35;;;;;;;3.55;2.37;;;25.90;73.60;;;;;;10978107;32;20103;-77
2023/05/28 20:33:37;;;;;;;3.25;2.03;;;25.80;73.50;;;;;;10979359;32;20041;-76
2023/05/28 20:39:40;;;;;;;8.18;3.30;;;25.80;73.50;;;;;;10979228;32;20029;-76
2023/05/28 20:45:42;;;;;;;3.95;2.85;;;25.70;74.30;;;;;;10976090;32;20026;-77
2023/05/28 20:51:45;;;;;;;3.50;2.40;;;25.60;74.20;;;;;;10976841;32;20439;-76
2023/05/28 20:57:54;;;;;;;17.45;2.47;;;25.50;75.10;;;;;;10965368;32;20040;-76
2023/05/28 21:03:56;;;;;;;5.05;2.62;;;25.40;75.00;;;;;;10964925;32;20035;-76
2023/05/28 21:09:58;;;;;;;3.10;1.70;;;25.40;75.10;;;;;;10979508;32;20023;-76
2023/05/28 21:16:00;;;;;;;6.30;2.20;;;25.30;75.40;;;;;;10971414;32;20034;-77
2023/05/28 21:22:02;;;;;;;4.62;2.22;;;25.20;75.90;;;;;;10984553;32;20380;-76
2023/05/28 21:28:05;;;;;;;3.45;2.58;;;25.20;75.70;;;;;;10982115;32;20015;-76
2023/05/28 21:34:08;;;;;;;4.72;2.50;;;25.20;76.10;;;;;;10980763;32;20057;-76
2023/05/28 21:40:10;;;;;;;4.32;2.28;;;25.10;76.70;;;;;;10984861;32;20019;-76
2023/05/28 21:46:12;;;;;;;4.20;2.33;;;25.10;76.50;;;;;;10984670;32;20050;-76
2023/05/28 21:52:14;;;;;;;5.20;3.15;;;25.00;76.20;;;;;;10981070;32;20049;-76
2023/05/28 21:58:16;;;;;;;4.10;1.85;;;25.00;75.90;;;;;;10984057;32;20023;-76
2023/05/28 22:04:18;;;;;;;3.45;2.00;;;24.90;76.90;;;;;;10980001;32;20332;-77
2023/05/28 22:10:21;;;;;;;3.20;2.05;;;24.80;77.10;;;;;;10983752;32;20027;-76
2023/05/28 22:16:23;;;;;;;3.70;2.20;;;24.80;78.00;;;;;;10982998;32;20066;-76
2023/05/28 22:22:25;;;;;;;4.75;2.85;;;24.70;78.60;;;;;;10968575;32;20053;-77
2023/05/28 22:28:28;;;;;;;5.10;2.47;;;24.70;78.20;;;;;;10983184;32;20442;-76
2023/05/28 22:34:30;;;;;;;5.68;2.60;;;24.70;77.60;;;;;;10982648;32;20019;-76
2023/05/28 22:40:32;;;;;;;4.07;2.33;;;24.50;77.30;;;;;;10982678;32;20073;-76
2023/05/28 22:46:35;;;;;;;6.43;2.97;;;24.50;77.40;;;;;;10978940;32;20030;-76
2023/05/28 22:52:39;;;;;;;3.78;2.17;;;24.50;77.60;;;;;;10979432;32;20041;-75
2023/05/28 22:58:41;;;;;;;4.45;2.78;;;24.50;77.50;;;;;;10981838;32;20341;-76
2023/05/28 23:04:43;;;;;;;5.22;2.60;;;24.40;77.70;;;;;;10981085;32;20346;-76
2023/05/28 23:10:46;;;;;;;6.35;2.35;;;24.40;77.50;;;;;;10978095;32;20026;-76
2023/05/28 23:16:49;;;;;;;7.80;2.78;;;24.30;77.90;;;;;;10977595;32;20109;-76
2023/05/28 23:22:51;;;;;;;5.82;3.72;;;24.30;78.10;;;;;;10980267;32;20019;-76
2023/05/28 23:28:53;;;;;;;5.45;3.53;;;24.30;77.40;;;;;;10974270;27;20042;-76
2023/05/28 23:34:56;;;;;;;5.53;3.37;;;24.10;77.80;;;;;;10966541;32;20034;-76
2023/05/28 23:40:58;;;;;;;6.55;3.50;;;24.10;77.80;;;;;;10980546;32;20037;-76
2023/05/28 23:47:00;;;;;;;5.93;3.22;;;24.10;77.70;;;;;;10980306;32;20037;-76
2023/05/28 23:53:02;;;;;;;6.47;3.25;;;24.10;77.50;;;;;;10967071;32;20364;-76
2023/05/28 23:59:04;;;;;;;5.05;3.10;;;24.00;77.20;;;;;;10980041;32;20023;-76
